createdAt,value
2022-08-12T00:07:53.631Z,3.30
2022-08-12T00:18:13.545Z,2.80
2022-08-12T00:28:33.452Z,3.15
2022-08-12T00:38:53.749Z,3.00
2022-08-12T00:48:55.084Z,2.88
2022-08-12T00:58:56.430Z,3.00
2022-08-12T01:09:16.587Z,2.83
2022-08-12T01:19:17.839Z,2.90
2022-08-12T01:29:23.515Z,2.58
2022-08-12T01:39:25.975Z,2.25
2022-08-12T01:49:27.302Z,2.30
2022-08-12T01:59:47.423Z,2.38
2022-08-12T02:10:07.713Z,2.30
2022-08-12T02:20:09.075Z,2.40
2022-08-12T02:30:10.422Z,2.40
2022-08-12T02:40:12.240Z,2.40
2022-08-12T02:50:13.676Z,2.63
2022-08-12T03:00:18.944Z,2.70
2022-08-12T03:10:25.152Z,2.30
2022-08-12T03:20:40.349Z,2.53
2022-08-12T03:30:43.226Z,2.60
2022-08-12T03:41:03.496Z,2.55
2022-08-12T03:51:23.545Z,2.60
2022-08-12T04:01:27.985Z,2.70
2022-08-12T04:11:48.072Z,2.97
2022-08-12T04:22:02.783Z,2.75
2022-08-12T04:32:06.714Z,2.85
2022-08-12T04:42:07.949Z,3.05
2022-08-12T04:52:09.296Z,2.70
2022-08-12T05:02:16.967Z,3.00
2022-08-12T05:12:23.505Z,3.72
2022-08-12T05:22:24.850Z,2.80
2022-08-12T05:32:26.200Z,2.80
2022-08-12T05:42:34.488Z,2.92
2022-08-12T05:52:36.143Z,3.13
2022-08-12T06:02:37.491Z,2.80
2022-08-12T06:12:38.981Z,2.80
2022-08-12T06:22:40.549Z,3.00
2022-08-12T06:32:51.669Z,2.70
2022-08-12T06:43:03.292Z,2.72
2022-08-12T06:53:05.905Z,2.40
2022-08-12T07:03:22.830Z,2.40
2022-08-12T07:13:25.173Z,2.60
2022-08-12T07:23:26.509Z,2.33
2022-08-12T07:33:31.177Z,2.60
2022-08-12T07:43:32.880Z,2.47
2022-08-12T07:53:35.096Z,2.30
2022-08-12T08:04:08.593Z,2.30
2022-08-12T08:14:10.671Z,2.50
2022-08-12T08:24:15.169Z,2.63
2022-08-12T08:34:33.722Z,2.60
2022-08-12T08:44:39.489Z,2.30
2022-08-12T08:54:40.860Z,2.08
2022-08-12T09:05:13.408Z,1.95
2022-08-12T09:15:16.575Z,2.17
2022-08-12T09:25:26.092Z,2.03
2022-08-12T09:35:28.500Z,2.17
2022-08-12T09:46:11.357Z,1.70
2022-08-12T09:56:06.744Z,2.10
2022-08-12T10:06:27.639Z,1.60
2022-08-12T10:16:39.184Z,1.60
2022-08-12T10:26:59.465Z,1.80
2022-08-12T10:37:22.962Z,1.90
2022-08-12T10:48:07.597Z,1.83
2022-08-12T10:58:14.363Z,1.70
2022-08-12T11:08:36.414Z,1.80
2022-08-12T11:18:34.028Z,1.73
2022-08-12T11:28:38.254Z,1.88
2022-08-12T11:38:39.888Z,1.70
2022-08-12T11:48:52.409Z,1.70
2022-08-12T12:01:57.818Z,1.90
2022-08-12T12:09:18.185Z,1.88
2022-08-12T12:30:17.770Z,2.43
2022-08-12T12:40:03.767Z,1.75
2022-08-12T12:50:07.446Z,2.22
2022-08-12T13:00:15.154Z,1.35
2022-08-12T13:10:16.563Z,1.85
2022-08-12T13:20:38.172Z,1.80
2022-08-12T13:30:39.180Z,1.75
2022-08-12T13:40:50.438Z,1.45
2022-08-12T13:50:52.911Z,1.88
2022-08-12T14:00:55.746Z,1.40
2022-08-12T14:10:57.286Z,1.65
2022-08-12T14:21:00.759Z,1.60
2022-08-12T14:31:05.576Z,1.30
2022-08-12T14:41:19.884Z,1.50
2022-08-12T14:52:44.211Z,1.30
2022-08-12T15:01:45.737Z,1.25
2022-08-12T15:11:55.326Z,1.40
2022-08-12T15:22:37.300Z,1.33
2022-08-12T15:32:20.303Z,1.30
2022-08-12T15:42:34.246Z,0.98
2022-08-12T15:52:36.212Z,1.20
2022-08-12T16:02:37.552Z,1.08
2022-08-12T16:12:39.653Z,1.30
2022-08-12T16:22:40.982Z,1.10
2022-08-12T16:32:53.785Z,1.05
2022-08-12T16:43:02.303Z,1.00
2022-08-12T16:53:06.279Z,1.30
2022-08-12T17:03:10.508Z,1.50
2022-08-12T17:23:15.171Z,1.30
2022-08-12T17:33:24.830Z,1.47
2022-08-12T17:43:57.664Z,1.10
2022-08-12T17:54:11.086Z,1.38
2022-08-12T18:04:22.913Z,1.30
2022-08-12T18:14:30.827Z,1.33
2022-08-12T18:24:32.185Z,1.30
2022-08-12T18:34:34.299Z,1.20
2022-08-12T18:44:36.023Z,1.25
2022-08-12T18:54:41.292Z,1.42
2022-08-12T19:04:52.866Z,1.30
2022-08-12T19:15:04.113Z,1.20
2022-08-12T19:26:00.754Z,1.40
2022-08-12T19:36:08.085Z,1.40
2022-08-12T19:46:07.758Z,1.13
2022-08-12T19:56:12.161Z,1.33
2022-08-12T20:06:18.237Z,1.20
2022-08-12T20:16:47.452Z,1.33
2022-08-12T20:26:44.766Z,1.42
2022-08-12T20:36:47.661Z,1.45
2022-08-12T20:47:11.766Z,1.10
2022-08-12T20:57:21.571Z,1.35
2022-08-12T21:07:23.673Z,1.58
2022-08-12T21:18:00.407Z,1.23
2022-08-12T21:27:59.085Z,1.30
2022-08-12T21:38:02.531Z,1.45
2022-08-12T21:48:06.038Z,1.52
2022-08-12T21:58:10.494Z,1.23
2022-08-12T22:08:12.122Z,1.23
2022-08-12T22:18:16.094Z,1.15
2022-08-12T22:28:38.996Z,1.40
2022-08-12T22:38:40.574Z,1.38
2022-08-12T22:48:50.352Z,1.20
2022-08-12T22:59:02.511Z,1.30
2022-08-12T23:09:04.231Z,1.50
2022-08-12T23:19:10.638Z,1.33
2022-08-12T23:29:29.785Z,1.60
2022-08-12T23:40:14.560Z,1.38
2022-08-12T23:50:13.169Z,1.48
